Portada
METAR-TAF:

METAR-TAF

Aeroports :

Wings Field

Filadèlfia-Blue Bell, Pennsilvània, Estats Units d'Amèrica

latitud: 40-08-15N, longitud: 075-15-54W, altitud: 92 m

Observació

L'informe es va fer fa 17 minuts, a les 10:35 UTC
Vent calma
Temperatura 15°C
Humitat 100%
Pressió 1013 hPa
Visibilitat: 16.1 km
Cel clar

METAR: KLOM 241035Z AUTO 00000KT 10SM CLR 15/15 A2992 RMK AO2 T01490146

Hora: 06:52 (10:52 UTC)


TAF: manca

Observacions i pronòstics meteorològics de més de 4000 aeroports (METAR i TAF).

Les estacions disponibles són els punts grocs i vermells al mapa.

Posi el ratolí al punt desitjat per veure el nom de l'estació.

Feu clic per veure les observacions i els pronòstics meteorològics.

Per canviar el mapa: feu clic els botons verds amb una creu de color negre per apropar; al botó verd amb un guió per allunyar la imatge; o en les fletxes verdes per a mapes adjacents.


METAR-TAF: